• Join FlightAware (Why Join?)
  • Login
  • US Flag GB Flag 
10:20 EDT


 

Airport Tracker/Info


-or-


 

Live Flight TrackerFlight Track Log ✈ RPA3228 ✈ 11-Nov-2013 ✈ KBNA - KDCA

Flight Track Log - Related Links

Times and Time Zones

All times are in EST time to prevent confusion due to time zone crossing. See the RPA3228 flight status page for this flight to view local times or setup timezone preferences in your user account.

Time Position Orientation Groundspeed Altitude Reporting Facility
EST Latitude Longitude Course Direction KTS MPH feet Rate Location/Type
07:17 36.1333 -86.7000 50° Northeast 156 180 1,300  Level Nashville TRACON
07:17 36.1500 -86.7333 302° West 189 217 2,400 1,800 Climbing Nashville TRACON
07:18 36.1833 -86.8000 302° West 262 302 4,600 2,580 Climbing Nashville TRACON
07:19 36.2387 -86.3351 80° East  Level Estimated
07:19 36.2167 -86.7333 58° Northeast 291 335 7,600  Level Nashville TRACON
07:20 36.2766 -86.2205 64° Northeast  Level Estimated
07:21 36.3143 -86.1058 68° East  Level Estimated
07:21 36.2083 -86.6278 96° East 290 334 10,600  Level Memphis Center
07:22 36.3520 -85.9910 50° Northeast  Level Estimated
07:22 36.2069 -86.5150 91° East 319 367 12,400  Level Memphis Center
07:23 36.2053 -86.3950 91° East 342 394 14,600 1,980 Climbing Memphis Center
07:24 36.2028 -86.2689 91° East 359 413 16,400 1,740 Climbing Memphis Center
07:25 36.2017 -86.1344 91° East 382 440 18,200 2,100 Climbing Memphis Center
07:26 36.2311 -86.0044 74° East 399 459 20,700 2,340 Climbing Memphis Center
07:27 36.2850 -85.8825 61° Northeast 401 461 23,000 2,160 Climbing Memphis Center
07:28 36.3450 -85.7497 61° Northeast 405 466 25,100 1,740 Climbing Memphis Center
07:29 36.4056 -85.6242 59° Northeast 415 478 26,600 1,380 Climbing Memphis Center
07:30 36.4683 -85.4944 59° Northeast 428 493 28,000 1,320 Climbing Memphis Center
07:31 36.5300 -85.3600 60° Northeast 440 506 29,300 1,140 Climbing Memphis Center
07:32 36.5956 -85.2214 59° Northeast 454 522 30,400 960 Climbing Memphis Center
07:33 36.6486 -85.0692 66° East 471 542 31,300 1,140 Climbing Memphis Center
07:34 36.6961 -84.9119 69° East 480 552 32,700 1,080 Climbing Memphis Center
07:35 36.7522 -84.7264 69° East 479 551 33,800 900 Climbing Indianapolis Center
07:36 36.8000 -84.5714 69° East 478 550 34,900 540 Climbing Indianapolis Center
07:37 36.8547 -84.3931 69° East 477 549 35,000  Climbing Indianapolis Center
07:38 36.8989 -84.2433 70° East 466 536 35,000  Level Indianapolis Center
07:39 36.9444 -84.0939 69° East 462 532 35,000  Level Indianapolis Center
07:40 36.9892 -83.9428 70° East 462 532 35,000  Level Indianapolis Center
07:41 37.0336 -83.7917 70° East 461 531 35,000  Level Indianapolis Center
07:42 37.0772 -83.6411 70° East 459 528 35,000  Level Indianapolis Center
07:43 37.1292 -83.4647 70° East 459 528 35,000  Level Indianapolis Center
07:44 37.1717 -83.3144 70° East 455 524 35,000  Level Indianapolis Center
07:45 37.2167 -83.1639 69° East 457 526 35,000  Level Indianapolis Center
07:46 37.2600 -83.0114 70° East 457 526 35,000  Level Indianapolis Center
07:47 37.3039 -82.8592 70° East 458 527 35,000  Level Indianapolis Center
07:48 37.3461 -82.7072 71° East 458 527 35,000  Level Indianapolis Center
07:49 37.3903 -82.5547 70° East 459 528 35,000  Level Indianapolis Center
07:50 37.4333 -82.4008 71° East 463 533 35,000  Level Indianapolis Center
07:51 37.4764 -82.2469 71° East 464 534 35,000  Level Indianapolis Center
07:52 37.5189 -82.0933 71° East 464 534 35,000  Level Indianapolis Center
07:53 37.5694 -81.9128 70° East 466 536 35,000  Level Indianapolis Center
07:54 37.6108 -81.7581 71° East 467 537 35,000  Level Indianapolis Center
07:56 37.6525 -81.6025 71° East 466 536 35,000  Level Indianapolis Center
07:57 37.6972 -81.4417 71° East 466 536 35,000  Level Indianapolis Center
07:58 37.7381 -81.2881 71° East 470 541 35,000  Level Indianapolis Center
07:59 37.7786 -81.1361 71° East 470 541 35,000  Level Indianapolis Center
08:00 37.8333 -80.9758 67° East 469 540 35,000  Level Indianapolis Center
08:01 37.8869 -80.8247 66° East 470 541 35,000  Level Indianapolis Center
08:02 37.9397 -80.6733 66° East 471 542 35,000  Level Indianapolis Center
08:03 37.9928 -80.5228 66° East 469 540 35,000  Level Indianapolis Center
08:04 38.0483 -80.3678 65° Northeast 471 542 35,000  Level Indianapolis Center
08:05 38.1119 -80.1972 65° Northeast 466 536 35,000  Level Washington Center
08:06 38.1656 -80.0472 66° East 466 536 35,000 -720 Level Washington Center
08:07 38.2192 -79.8972 65° Northeast 466 536 33,600 -1,440 Descending Washington Center
08:08 38.2703 -79.7467 67° East 466 536 32,200 -1,440 Descending Washington Center
08:09 38.3233 -79.5961 66° East 466 536 30,800 -1,440 Descending Washington Center
08:10 38.3672 -79.4633 67° East 466 536 29,400 -1,440 Descending Washington Center
08:11 38.4203 -79.3097 66° East 466 536 28,000 -720 Descending Washington Center
08:12 38.4522 -79.1469 76° East 466 536 28,000 -60 Level Washington Center
08:13 38.4819 -78.9839 77° East 466 536 27,900 -960 Descending Washington Center
08:14 38.5119 -78.8022 78° East 471 542 26,100 -2,400 Descending Washington Center
08:15 38.5281 -78.6622 82° East 461 531 23,200 -2,100 Descending Washington Center
08:16 38.5528 -78.5067 78° East 454 522 21,900 -1,260 Descending Washington Center
08:17 38.5772 -78.3589 78° East 438 504 20,700 -1,680 Descending Washington Center
08:18 38.6097 -78.2114 74° East 432 497 18,700 -1,920 Descending Washington Center
08:19 38.6500 -78.0825 68° East 410 472 16,900 -1,860 Descending Washington Center
08:20 38.6922 -77.9536 67° East 394 453 15,000 -1,860 Descending Washington Center
08:21 38.7300 -77.8350 68° East 374 430 13,300 -1,620 Descending Washington Center
08:22 38.7878 -77.7436 51° Northeast 343 395 11,800 -1,380 Descending Washington Center
08:23 38.8456 -77.6653 47° Northeast 312 359 10,500 -1,440 Descending Washington Center
08:23 38.8833 -77.6000 53° Northeast 258 297 9,400 -1,320 Descending Potomac TRACON
08:24 38.9167 -77.5667 38° Northeast 231 266 8,600 -1,020 Descending Potomac TRACON
08:25 38.9333 -77.4833 76° East 234 269 7,600 -1,140 Descending Potomac TRACON
08:26 38.9000 -77.4333 131° Southeast 221 254 6,500 -900 Descending Potomac TRACON
08:27 38.9167 -77.3833 67° East 218 251 5,900 -840 Descending Potomac TRACON
08:28 38.9500 -77.3667 21° North 185 213 4,900 -540 Descending Potomac TRACON
08:29 38.9833 -77.3167 49° Northeast 203 234 4,900 -480 Level Potomac TRACON
08:30 38.9833 -77.2500 90° East 202 232 4,100 -1,020 Descending Potomac TRACON
08:31 38.9667 -77.1833 108° East 192 221 3,000 -960 Descending Potomac TRACON
08:32 38.9333 -77.1333 131° Southeast 189 217 2,200 -900 Descending Potomac TRACON
08:33 38.9000 -77.0833 131° Southeast 164 189 1,200 -840 Descending Potomac TRACON
08:34 38.8833 -77.0500 123° Southeast 131 151 700 -600 Descending Potomac TRACON